Time;durP1;ratioP1;P1;durP2;ratioP2;P2;SDS_P1;SDS_P2;PMS_P1;PMS_P2;Temp;Humidity;BMP_temperature;BMP_pressure;BME280_temperature;BME280_humidity;BME280_pressure;Samples;Min_cycle;Max_cycle;Signal;HPM_P1;HPM_P2
2023/07/02 00:02:00;;;;;;;;;;;;;;;18.54;86.99;99899.84;4191957;28;19963;-70
2023/07/02 00:04:04;;;;;;;;;;;;;;;18.52;87.05;99896.53;4191186;28;19971;-69
2023/07/02 00:06:06;;;;;;;;;;;;;;;18.48;87.66;99900.84;4158053;28;19956;-71
2023/07/02 00:08:08;;;;;;;;;;;;;;;18.47;87.81;99900.03;4191468;28;19973;-70
2023/07/02 00:10:10;;;;;;;;;;;;;;;18.48;87.79;99912.63;4173060;28;19983;-69
2023/07/02 00:12:12;;;;;;;;;;;;;;;18.51;87.48;99898.47;4191870;28;19955;-69
2023/07/02 00:14:15;;;;;;;;;;;;;;;18.45;88.03;99899.47;4191366;28;19960;-69
2023/07/02 00:16:17;;;;;;;;;;;;;;;18.45;88.42;99896.72;4191647;28;20425;-71
2023/07/02 00:18:19;;;;;;;;;;;;;;;18.47;87.71;99896.47;4174620;28;19956;-71
2023/07/02 00:20:22;;;;;;;;;;;;;;;18.45;88.14;99899.47;4189491;28;19962;-70
2023/07/02 00:22:24;;;;;;;;;;;;;;;18.43;88.78;99903.50;4191637;28;20066;-71
2023/07/02 00:24:26;;;;;;;;;;;;;;;18.43;88.59;99901.63;4173945;28;19967;-71
2023/07/02 00:26:28;;;;;;;;;;;;;;;18.47;88.47;99905.50;4191702;28;20005;-71
2023/07/02 00:28:30;;;;;;;;;;;;;;;18.49;88.51;99897.88;4189252;28;20426;-70
2023/07/02 00:30:32;;;;;;;;;;;;;;;18.47;88.20;99905.50;4173142;28;19997;-70
2023/07/02 00:32:34;;;;;;;;;;;;;;;18.45;88.54;99901.34;4173722;28;19964;-70
2023/07/02 00:34:36;;;;;;;;;;;;;;;18.46;88.58;99903.00;4190430;28;19960;-70
2023/07/02 00:36:41;;;;;;;;;;;;;;;18.45;88.59;99918.59;4156560;28;19925;-69
2023/07/02 00:38:43;;;;;;;;;;;;;;;18.45;88.42;99904.06;4165177;28;19972;-70
2023/07/02 00:40:45;;;;;;;;;;;;;;;18.42;88.75;99919.09;4189729;28;20373;-70
2023/07/02 00:42:47;;;;;;;;;;;;;;;18.40;89.01;99906.75;4171489;28;20016;-71
2023/07/02 00:44:52;;;;;;;;;;;;;;;18.44;89.06;99907.91;4189914;28;19970;-70
2023/07/02 00:46:54;;;;;;;;;;;;;;;18.46;88.73;99909.28;4156167;28;19967;-70
2023/07/02 00:48:56;;;;;;;;;;;;;;;18.48;88.69;99909.03;4172371;28;19964;-71
2023/07/02 00:50:58;;;;;;;;;;;;;;;18.47;88.94;99915.63;4188290;28;19970;-70
2023/07/02 00:53:01;;;;;;;;;;;;;;;18.47;88.92;99921.91;4190397;28;19960;-70
2023/07/02 00:55:04;;;;;;;;;;;;;;;18.49;88.91;99919.72;4188897;28;20008;-71
2023/07/02 00:57:05;;;;;;;;;;;;;;;18.50;88.66;99915.94;4190169;28;20402;-70
2023/07/02 00:59:07;;;;;;;;;;;;;;;18.54;87.48;99910.78;4187835;28;19972;-70
2023/07/02 01:01:09;;;;;;;;;;;;;;;18.53;87.57;99918.16;4170664;28;19967;-70
2023/07/02 01:03:12;;;;;;;;;;;;;;;18.52;87.62;99907.47;4189740;28;19959;-70
2023/07/02 01:05:16;;;;;;;;;;;;;;;18.54;87.01;99913.53;4171667;28;19956;-70
2023/07/02 01:07:18;;;;;;;;;;;;;;;18.54;86.39;99914.38;4188819;28;19956;-70
2023/07/02 01:09:22;;;;;;;;;;;;;;;18.52;86.33;99915.69;4153616;28;20032;-70
2023/07/02 01:11:27;;;;;;;;;;;;;;;18.52;86.26;99915.69;4188919;28;19968;-71
2023/07/02 01:13:29;;;;;;;;;;;;;;;18.52;86.46;99912.94;4190332;28;19960;-71
2023/07/02 01:15:31;;;;;;;;;;;;;;;18.54;85.96;99919.00;4171783;28;20028;-70
2023/07/02 01:17:39;;;;;;;;;;;;;;;18.50;86.22;99918.66;4187935;28;19929;-70
2023/07/02 01:19:45;;;;;;;;;;;;;;;18.53;85.99;99914.63;4188424;28;19952;-69
2023/07/02 01:21:47;;;;;;;;;;;;;;;18.52;85.88;99919.25;4188914;28;20381;-70
2023/07/02 01:23:49;;;;;;;;;;;;;;;18.54;85.62;99930.78;4171233;28;19961;-71
2023/07/02 01:25:52;;;;;;;;;;;;;;;18.55;85.20;99921.47;4171905;28;19964;-71
2023/07/02 01:27:55;;;;;;;;;;;;;;;18.58;84.53;99922.88;4189397;28;19963;-69
2023/07/02 01:29:57;;;;;;;;;;;;;;;18.55;84.32;99937.06;4188764;28;19924;-70
2023/07/02 01:31:59;;;;;;;;;;;;;;;18.53;84.06;99931.84;4172185;28;19937;-71
2023/07/02 01:34:04;;;;;;;;;;;;;;;18.52;84.04;99926.63;4188574;28;19963;-70
2023/07/02 01:36:08;;;;;;;;;;;;;;;18.51;84.10;99927.69;4187990;28;20027;-69
2023/07/02 01:38:10;;;;;;;;;;;;;;;18.51;83.86;99933.16;4189166;28;20432;-70
2023/07/02 01:40:14;;;;;;;;;;;;;;;18.49;83.55;99927.94;4169799;28;20418;-70
2023/07/02 01:42:16;;;;;;;;;;;;;;;18.48;83.35;99929.03;4187892;28;19975;-70
2023/07/02 01:44:19;;;;;;;;;;;;;;;18.47;83.34;99932.03;4188500;28;19928;-69
2023/07/02 01:46:21;;;;;;;;;;;;;;;18.49;83.34;99935.31;4154939;28;19987;-70
2023/07/02 01:48:23;;;;;;;;;;;;;;;18.52;82.96;99935.66;4151821;28;19957;-71
2023/07/02 01:50:25;;;;;;;;;;;;;;;18.52;82.82;99940.28;4188109;28;20027;-70
2023/07/02 01:52:32;;;;;;;;;;;;;;;18.50;83.07;99939.72;4171571;28;19953;-70
2023/07/02 01:54:36;;;;;;;;;;;;;;;18.50;83.20;99942.47;4171920;28;19964;-71
2023/07/02 01:56:38;;;;;;;;;;;;;;;18.54;82.94;99941.72;4154932;28;19980;-71
2023/07/02 01:58:40;;;;;;;;;;;;;;;18.50;82.94;99945.19;4188949;28;19992;-71
2023/07/02 02:00:42;;;;;;;;;;;;;;;18.46;83.44;99952.22;4173637;28;19948;-71
2023/07/02 02:02:44;;;;;;;;;;;;;;;18.45;83.33;99942.34;4191889;28;19980;-71
2023/07/02 02:04:46;;;;;;;;;;;;;;;18.43;83.62;99956.31;4193425;28;19953;-70
2023/07/02 02:06:48;;;;;;;;;;;;;;;18.46;83.45;99955.78;4194478;28;19959;-71
2023/07/02 02:08:52;;;;;;;;;;;;;;;18.52;81.97;99952.03;4190888;28;19970;-71
2023/07/02 02:10:54;;;;;;;;;;;;;;;18.48;81.94;99942.72;4172864;28;19964;-70
2023/07/02 02:12:56;;;;;;;;;;;;;;;18.44;82.03;99940.72;4189240;28;19960;-71
2023/07/02 02:14:58;;;;;;;;;;;;;;;18.40;82.08;99940.41;4155204;28;19959;-70
2023/07/02 02:17:00;;;;;;;;;;;;;;;18.40;81.91;99947.75;4157125;28;19926;-71
2023/07/02 02:19:03;;;;;;;;;;;;;;;18.42;81.47;99937.41;4171984;28;19967;-69
2023/07/02 02:21:05;;;;;;;;;;;;;;;18.40;81.22;99934.94;4189054;28;19966;-71
2023/07/02 02:23:07;;;;;;;;;;;;;;;18.39;81.10;99943.38;4172272;28;19975;-70
2023/07/02 02:25:10;;;;;;;;;;;;;;;18.40;80.82;99945.00;4190643;28;19963;-70
2023/07/02 02:27:12;;;;;;;;;;;;;;;18.37;80.94;99951.81;4174623;28;20367;-70
2023/07/02 02:29:14;;;;;;;;;;;;;;;18.35;81.12;99952.06;4192672;28;21063;-71
2023/07/02 02:31:16;;;;;;;;;;;;;;;18.34;81.25;99958.59;4192545;28;20466;-70
2023/07/02 02:33:18;;;;;;;;;;;;;;;18.31;81.41;99959.09;4175206;28;20360;-71
2023/07/02 02:35:21;;;;;;;;;;;;;;;18.30;81.38;99960.16;4193106;28;20398;-70
2023/07/02 02:37:22;;;;;;;;;;;;;;;18.31;81.56;99963.75;4192288;28;19956;-71
2023/07/02 02:39:25;;;;;;;;;;;;;;;18.27;81.49;99960.66;4190723;28;19932;-70
2023/07/02 02:41:28;;;;;;;;;;;;;;;18.24;81.63;99958.41;4191909;28;19960;-71
2023/07/02 02:43:30;;;;;;;;;;;;;;;18.26;81.39;99964.50;4192326;28;20466;-70
2023/07/02 02:45:32;;;;;;;;;;;;;;;18.20;81.31;99960.00;4152090;28;19977;-70
2023/07/02 02:47:34;;;;;;;;;;;;;;;18.18;81.49;99960.25;4192490;28;19971;-69
2023/07/02 02:49:38;;;;;;;;;;;;;;;18.19;81.47;99958.34;4174345;28;19963;-70
2023/07/02 02:51:40;;;;;;;;;;;;;;;18.18;81.42;99965.72;4174686;28;19925;-71
2023/07/02 02:53:42;;;;;;;;;;;;;;;18.16;81.20;99961.56;4175126;28;19975;-70
2023/07/02 02:55:44;;;;;;;;;;;;;;;18.15;81.26;99960.75;4169752;28;20414;-70
2023/07/02 02:57:48;;;;;;;;;;;;;;;18.16;80.83;99956.09;4192387;28;19975;-69
2023/07/02 02:59:50;;;;;;;;;;;;;;;18.14;80.49;99959.06;4190469;28;19929;-70
2023/07/02 03:01:52;;;;;;;;;;;;;;;18.12;80.63;99957.66;4173679;28;20373;-70
2023/07/02 03:03:54;;;;;;;;;;;;;;;18.11;80.39;99961.47;4146769;28;19936;-69
2023/07/02 03:05:56;;;;;;;;;;;;;;;18.09;80.54;99959.00;4170120;28;20027;-69
2023/07/02 03:07:58;;;;;;;;;;;;;;;18.09;80.46;99958.19;4169526;28;20391;-69
2023/07/02 03:10:00;;;;;;;;;;;;;;;18.06;80.49;99967.69;4187693;28;20055;-69
2023/07/02 03:12:03;;;;;;;;;;;;;;;18.03;80.81;99970.09;4170112;28;20012;-70
2023/07/02 03:14:06;;;;;;;;;;;;;;;18.01;80.98;99960.22;4170435;28;20107;-69
2023/07/02 03:16:08;;;;;;;;;;;;;;;17.99;81.03;99962.38;4187789;28;20035;-69
2023/07/02 03:18:10;;;;;;;;;;;;;;;17.95;81.18;99963.94;4169829;28;20016;-68
2023/07/02 03:20:12;;;;;;;;;;;;;;;17.97;81.43;99971.88;4187063;28;20298;-69
2023/07/02 03:22:14;;;;;;;;;;;;;;;17.97;81.27;99969.16;4187922;28;20024;-69
2023/07/02 03:24:16;;;;;;;;;;;;;;;17.95;81.00;99972.13;4187611;28;20418;-68
2023/07/02 03:26:19;;;;;;;;;;;;;;;17.93;81.28;99973.44;4187811;28;20812;-69
2023/07/02 03:28:21;;;;;;;;;;;;;;;17.96;80.82;99967.47;4188075;28;20047;-69
2023/07/02 03:30:25;;;;;;;;;;;;;;;17.93;80.61;99970.69;4187119;28;20338;-69
2023/07/02 03:32:26;;;;;;;;;;;;;;;17.90;80.73;99976.66;4188110;28;20012;-69
2023/07/02 03:34:28;;;;;;;;;;;;;;;17.90;80.69;99965.72;4187567;28;20015;-69
2023/07/02 03:36:30;;;;;;;;;;;;;;;17.89;80.77;99970.38;4187544;28;20016;-69
2023/07/02 03:38:32;;;;;;;;;;;;;;;17.88;80.90;99974.16;4170375;28;20007;-69
2023/07/02 03:40:34;;;;;;;;;;;;;;;17.90;80.92;99969.31;4185952;28;20008;-69
2023/07/02 03:42:36;;;;;;;;;;;;;;;17.89;81.23;99973.09;4187856;28;20051;-70
2023/07/02 03:44:38;;;;;;;;;;;;;;;17.91;81.29;99970.94;4186772;28;20012;-70
2023/07/02 03:46:42;;;;;;;;;;;;;;;17.91;81.17;99981.06;4188010;28;20019;-69
2023/07/02 03:48:44;;;;;;;;;;;;;;;17.88;81.54;99968.69;4187371;28;20035;-70
2023/07/02 03:50:46;;;;;;;;;;;;;;;17.86;81.66;99976.28;4186577;28;20015;-69
2023/07/02 03:52:47;;;;;;;;;;;;;;;17.86;81.90;99984.47;4187056;28;20040;-69
2023/07/02 03:54:48;;;;;;;;;;;;;;;17.86;81.73;99980.94;4187373;28;20032;-69
2023/07/02 03:56:50;;;;;;;;;;;;;;;17.83;81.98;99971.31;4187091;28;20000;-69
2023/07/02 03:58:52;;;;;;;;;;;;;;;17.83;81.53;99983.06;4187082;28;20007;-69
2023/07/02 04:00:55;;;;;;;;;;;;;;;17.81;82.03;99982.47;4168509;28;20398;-69
2023/07/02 04:02:58;;;;;;;;;;;;;;;17.82;81.99;99986.03;4187559;28;19925;-68
2023/07/02 04:05:02;;;;;;;;;;;;;;;17.81;81.46;99987.94;4187321;28;20027;-69
2023/07/02 04:07:04;;;;;;;;;;;;;;;17.80;81.76;99990.91;4187952;28;20039;-68
2023/07/02 04:09:06;;;;;;;;;;;;;;;17.80;81.27;100001.84;4186610;28;20019;-68
2023/07/02 04:11:08;;;;;;;;;;;;;;;17.81;81.08;99995.31;4186908;28;20020;-69
2023/07/02 04:13:10;;;;;;;;;;;;;;;17.80;81.04;99990.91;4187440;28;20056;-69
2023/07/02 04:15:12;;;;;;;;;;;;;;;17.85;80.32;100007.41;4187506;28;20027;-69
2023/07/02 04:17:14;;;;;;;;;;;;;;;17.80;80.31;100004.56;4187048;28;20023;-68
2023/07/02 04:19:17;;;;;;;;;;;;;;;17.80;80.33;100013.59;4187070;28;20359;-69
2023/07/02 04:21:19;;;;;;;;;;;;;;;17.80;80.24;100019.03;4187233;28;20027;-69
2023/07/02 04:23:20;;;;;;;;;;;;;;;17.82;80.19;100019.66;4187260;28;20023;-69
2023/07/02 04:25:22;;;;;;;;;;;;;;;17.80;79.74;100015.50;4186656;28;19932;-68
2023/07/02 04:27:24;;;;;;;;;;;;;;;17.76;79.84;100011.63;4187413;28;20007;-68
2023/07/02 04:29:26;;;;;;;;;;;;;;;17.77;80.04;100011.38;4186746;28;20453;-69
2023/07/02 04:31:28;;;;;;;;;;;;;;;17.80;79.85;100010.84;4186142;28;20015;-68
2023/07/02 04:33:35;;;;;;;;;;;;;;;17.79;79.43;100020.13;4186866;28;20456;-68
2023/07/02 04:35:39;;;;;;;;;;;;;;;17.78;79.51;100020.38;4187086;28;20019;-69
2023/07/02 04:37:40;;;;;;;;;;;;;;;17.81;79.51;100019.91;4186743;28;20016;-68
2023/07/02 04:39:42;;;;;;;;;;;;;;;17.82;79.29;100016.94;4185498;28;20023;-68
2023/07/02 04:41:44;;;;;;;;;;;;;;;17.79;79.13;100022.88;4186340;28;19924;-68
2023/07/02 04:43:47;;;;;;;;;;;;;;;17.78;79.07;100017.66;4186522;28;20032;-68
2023/07/02 04:45:49;;;;;;;;;;;;;;;17.77;79.02;100018.72;4186429;28;20019;-68
2023/07/02 04:47:51;;;;;;;;;;;;;;;17.77;79.01;100016.84;4168439;28;20019;-69
2023/07/02 04:49:53;;;;;;;;;;;;;;;17.81;78.38;100026.19;4184080;28;20021;-68
2023/07/02 04:51:56;;;;;;;;;;;;;;;17.73;78.97;100023.03;4184202;28;20024;-68
2023/07/02 04:53:58;;;;;;;;;;;;;;;17.75;78.79;100020.88;4186291;28;20019;-68
2023/07/02 04:56:00;;;;;;;;;;;;;;;17.76;78.91;100036.19;4186131;28;20091;-68
2023/07/02 04:58:02;;;;;;;;;;;;;;;17.79;78.83;100038.41;4186506;28;20023;-68
2023/07/02 05:00:05;;;;;;;;;;;;;;;17.79;78.98;100044.72;4186075;28;20448;-68
2023/07/02 05:02:07;;;;;;;;;;;;;;;17.80;78.73;100038.16;4186361;28;19935;-68
2023/07/02 05:04:10;;;;;;;;;;;;;;;17.80;78.90;100038.16;4185341;28;20021;-68
2023/07/02 05:06:12;;;;;;;;;;;;;;;17.84;78.88;100036.63;4186504;28;20020;-68
2023/07/02 05:08:16;;;;;;;;;;;;;;;17.84;78.90;100036.63;4186621;28;20023;-68
2023/07/02 05:10:18;;;;;;;;;;;;;;;17.88;78.67;100031.53;4185304;28;20019;-69
2023/07/02 05:12:20;;;;;;;;;;;;;;;17.89;78.42;100029.66;4186607;28;20036;-67
2023/07/02 05:14:22;;;;;;;;;;;;;;;17.91;78.24;100036.50;4185713;28;20007;-67
2023/07/02 05:16:24;;;;;;;;;;;;;;;17.92;78.09;100040.09;4186415;28;20035;-67
2023/07/02 05:18:26;;;;;;;;;;;;;;;17.90;78.08;100043.06;4186284;28;20046;-68
2023/07/02 05:20:28;;;;;;;;;;;;;;;17.92;77.87;100043.63;4184272;28;20015;-67
2023/07/02 05:22:30;;;;;;;;;;;;;;;17.98;77.07;100047.31;4186101;28;20418;-67
2023/07/02 05:24:33;;;;;;;;;;;;;;;17.96;77.00;100052.16;4167818;28;20625;-67
2023/07/02 05:26:35;;;;;;;;;;;;;;;17.96;77.24;100052.16;4186052;28;20027;-68
2023/07/02 05:28:37;;;;;;;;;;;;;;;18.01;76.19;100046.81;4186206;28;20016;-68
2023/07/02 05:30:39;;;;;;;;;;;;;;;17.97;76.51;100048.38;4185390;28;20015;-68
2023/07/02 05:32:41;;;;;;;;;;;;;;;17.98;75.73;100047.31;4185828;28;20028;-67
2023/07/02 05:34:43;;;;;;;;;;;;;;;17.94;75.89;100051.59;4184856;28;20489;-67
2023/07/02 05:36:46;;;;;;;;;;;;;;;17.99;76.20;100051.69;4183824;28;20024;-67
2023/07/02 05:38:48;;;;;;;;;;;;;;;18.04;75.95;100050.97;4185707;28;20012;-68
2023/07/02 05:40:52;;;;;;;;;;;;;;;18.01;76.06;100057.75;4183524;28;20576;-68
2023/07/02 05:42:54;;;;;;;;;;;;;;;18.03;75.76;100054.78;4169562;28;19935;-70
2023/07/02 05:44:56;;;;;;;;;;;;;;;18.09;74.99;100059.28;4169195;28;20359;-70
2023/07/02 05:46:58;;;;;;;;;;;;;;;18.07;74.51;100065.00;4168422;28;20427;-70
2023/07/02 05:49:00;;;;;;;;;;;;;;;18.04;74.92;100061.88;4168718;28;20020;-71
2023/07/02 05:51:02;;;;;;;;;;;;;;;18.08;74.93;100065.81;4168046;28;20016;-71
2023/07/02 05:53:05;;;;;;;;;;;;;;;18.05;74.96;100069.84;4168801;28;19925;-70
2023/07/02 05:55:10;;;;;;;;;;;;;;;18.07;74.86;100072.34;4167460;28;20015;-70
2023/07/02 05:57:13;;;;;;;;;;;;;;;18.12;74.76;100072.44;4168012;28;20450;-70
2023/07/02 05:59:17;;;;;;;;;;;;;;;18.12;74.57;100070.53;4171582;28;20011;-70
2023/07/02 06:01:19;;;;;;;;;;;;;;;18.14;74.45;100083.97;4172330;28;20482;-72
2023/07/02 06:03:21;;;;;;;;;;;;;;;18.17;73.40;100078.00;4170621;28;20023;-70
2023/07/02 06:05:23;;;;;;;;;;;;;;;18.11;73.62;100074.34;4171751;28;20051;-71
2023/07/02 06:07:26;;;;;;;;;;;;;;;18.09;73.28;100075.69;4171641;28;20035;-71
2023/07/02 06:09:33;;;;;;;;;;;;;;;18.09;73.42;100081.97;4171174;28;20020;-72
2023/07/02 06:11:35;;;;;;;;;;;;;;;18.15;73.37;100082.88;4171691;28;20365;-68
2023/07/02 06:13:41;;;;;;;;;;;;;;;18.12;73.51;100081.47;4170660;28;20029;-69
2023/07/02 06:15:43;;;;;;;;;;;;;;;18.14;73.17;100083.97;4171144;28;20032;-70
2023/07/02 06:17:45;;;;;;;;;;;;;;;18.13;73.11;100077.66;4170951;28;20056;-70
2023/07/02 06:19:47;;;;;;;;;;;;;;;18.18;72.92;100085.13;4171109;28;20132;-70
2023/07/02 06:21:49;;;;;;;;;;;;;;;18.23;72.70;100071.56;4171927;28;20061;-69
2023/07/02 06:23:51;;;;;;;;;;;;;;;18.26;72.47;100065.63;4174464;28;19960;-70
2023/07/02 06:25:58;;;;;;;;;;;;;;;18.31;72.00;100056.69;4174543;28;19964;-71
2023/07/02 06:28:00;;;;;;;;;;;;;;;18.32;71.72;100061.06;4173935;28;20490;-70
2023/07/02 06:30:04;;;;;;;;;;;;;;;18.39;71.26;100085.53;4172888;28;19987;-70
2023/07/02 06:32:07;;;;;;;;;;;;;;;18.34;70.67;100072.59;4173988;28;20023;-71
2023/07/02 06:34:09;;;;;;;;;;;;;;;18.40;70.70;100074.34;4170450;28;20059;-71
2023/07/02 06:36:13;;;;;;;;;;;;;;;18.41;70.25;100066.97;4169531;28;19933;-70
2023/07/02 06:38:15;;;;;;;;;;;;;;;18.41;70.49;100069.69;4170359;28;20048;-70
2023/07/02 06:40:17;;;;;;;;;;;;;;;18.40;70.22;100066.16;4169582;28;20204;-69
2023/07/02 06:42:19;;;;;;;;;;;;;;;18.45;69.82;100051.72;4182394;28;20043;-69
2023/07/02 06:44:21;;;;;;;;;;;;;;;18.45;69.34;100052.56;4185628;28;19955;-70
2023/07/02 06:46:24;;;;;;;;;;;;;;;18.44;69.26;100050.06;4187785;28;20012;-69
2023/07/02 06:48:27;;;;;;;;;;;;;;;18.43;69.06;100062.06;4190931;28;19970;-69
2023/07/02 06:50:29;;;;;;;;;;;;;;;18.41;68.57;100064.25;4152863;28;19964;-70
2023/07/02 06:52:31;;;;;;;;;;;;;;;18.42;68.17;100074.09;4190683;28;19991;-69
2023/07/02 06:54:34;;;;;;;;;;;;;;;18.45;67.80;100068.97;4190289;28;20624;-70
2023/07/02 06:56:37;;;;;;;;;;;;;;;18.48;68.03;100075.84;4190359;28;20419;-68
2023/07/02 06:58:43;;;;;;;;;;;;;;;18.50;67.76;100071.78;4155101;28;20023;-70
2023/07/02 07:00:47;;;;;;;;;;;;;;;18.51;67.58;100075.34;4183158;28;20398;-71
2023/07/02 07:02:50;;;;;;;;;;;;;;;18.52;67.54;100063.34;4185519;28;20008;-70
2023/07/02 07:04:52;;;;;;;;;;;;;;;18.58;67.68;100061.53;4185303;28;19928;-69
2023/07/02 07:06:55;;;;;;;;;;;;;;;18.61;67.46;100059.13;4185883;28;20019;-71
2023/07/02 07:08:57;;;;;;;;;;;;;;;18.69;67.15;100072.38;4185637;28;20369;-70
2023/07/02 07:10:59;;;;;;;;;;;;;;;18.71;67.05;100078.47;4185262;28;20031;-69
2023/07/02 07:13:02;;;;;;;;;;;;;;;18.73;66.75;100072.75;4166027;28;20016;-68
2023/07/02 07:15:04;;;;;;;;;;;;;;;18.77;66.75;100062.94;4165070;28;20020;-69
2023/07/02 07:17:07;;;;;;;;;;;;;;;18.78;65.87;100067.34;4181804;28;20023;-68
2023/07/02 07:19:12;;;;;;;;;;;;;;;18.78;65.62;100070.09;4184521;28;20023;-69
2023/07/02 07:21:17;;;;;;;;;;;;;;;18.85;65.02;100073.50;4184067;28;20027;-68
2023/07/02 07:23:19;;;;;;;;;;;;;;;18.81;64.44;100083.28;4182471;28;20043;-69
2023/07/02 07:25:21;;;;;;;;;;;;;;;18.82;65.09;100076.69;4183065;28;20019;-70
2023/07/02 07:27:23;;;;;;;;;;;;;;;18.82;65.02;100073.16;4184537;28;20003;-69
2023/07/02 07:29:26;;;;;;;;;;;;;;;18.83;65.08;100077.56;4185501;28;20418;-67
2023/07/02 07:31:29;;;;;;;;;;;;;;;18.84;65.13;100071.88;4185045;28;20024;-68
2023/07/02 07:33:33;;;;;;;;;;;;;;;18.84;65.27;100070.97;4168163;28;19972;-68
2023/07/02 07:35:37;;;;;;;;;;;;;;;18.86;65.09;100068.88;4186573;28;20032;-68
2023/07/02 07:37:41;;;;;;;;;;;;;;;18.91;65.04;100066.22;4187076;28;20130;-68
2023/07/02 07:39:44;;;;;;;;;;;;;;;19.02;64.93;100070.78;4184644;28;20019;-68
2023/07/02 07:41:48;;;;;;;;;;;;;;;19.03;64.28;100061.50;4187693;28;20373;-68
2023/07/02 07:43:53;;;;;;;;;;;;;;;19.09;64.69;100070.63;4187506;28;20366;-68
2023/07/02 07:45:59;;;;;;;;;;;;;;;19.09;64.61;100078.84;4184338;28;19936;-68
2023/07/02 07:48:04;;;;;;;;;;;;;;;19.13;64.70;100079.97;4186728;28;20354;-68
2023/07/02 07:50:10;;;;;;;;;;;;;;;19.16;63.52;100090.44;4186806;28;20020;-69
2023/07/02 07:52:16;;;;;;;;;;;;;;;19.16;63.77;100097.81;4187931;28;19970;-68
2023/07/02 07:54:19;;;;;;;;;;;;;;;19.14;63.91;100094.47;4186491;28;20462;-69
2023/07/02 07:56:20;;;;;;;;;;;;;;;19.12;63.57;100093.91;4187330;28;20019;-68
2023/07/02 07:58:31;;;;;;;;;;;;;;;19.12;63.72;100104.84;4187556;28;19982;-68
2023/07/02 08:00:37;;;;;;;;;;;;;;;19.13;63.81;100099.13;4186128;28;20004;-69
2023/07/02 08:02:39;;;;;;;;;;;;;;;19.19;63.17;100116.47;4187529;28;20014;-69
2023/07/02 08:04:43;;;;;;;;;;;;;;;19.15;62.52;100112.56;4186652;28;20019;-68
2023/07/02 08:06:48;;;;;;;;;;;;;;;19.11;62.50;100108.66;4186956;28;19925;-67
2023/07/02 08:08:52;;;;;;;;;;;;;;;19.06;62.67;100110.25;4186115;28;20020;-68
2023/07/02 08:10:57;;;;;;;;;;;;;;;19.03;62.92;100113.50;4187240;28;20454;-68
2023/07/02 08:13:03;;;;;;;;;;;;;;;19.04;62.52;100114.31;4187034;28;20019;-69
2023/07/02 08:15:14;;;;;;;;;;;;;;;18.94;62.77;100117.72;4186806;28;20000;-69
2023/07/02 08:17:20;;;;;;;;;;;;;;;18.94;63.34;100116.91;4187216;28;20027;-68
2023/07/02 08:19:27;;;;;;;;;;;;;;;18.89;63.36;100114.91;4152591;28;20476;-69
2023/07/02 08:21:31;;;;;;;;;;;;;;;18.87;63.41;100117.03;4185533;28;20020;-69
2023/07/02 08:23:37;;;;;;;;;;;;;;;18.83;63.64;100111.19;4186824;28;20032;-69
2023/07/02 08:25:43;;;;;;;;;;;;;;;18.81;63.85;100118.00;4186564;28;20011;-68
2023/07/02 08:27:47;;;;;;;;;;;;;;;18.82;64.09;100116.91;4186562;28;20656;-69
2023/07/02 08:29:49;;;;;;;;;;;;;;;18.80;64.01;100124.56;4185863;28;20015;-70
2023/07/02 08:31:53;;;;;;;;;;;;;;;18.76;64.29;100123.38;4186438;28;20374;-68
2023/07/02 08:33:55;;;;;;;;;;;;;;;18.75;64.47;100116.25;4186060;28;20063;-69
2023/07/02 08:36:00;;;;;;;;;;;;;;;18.79;64.32;100117.41;4187113;28;20019;-68
2023/07/02 08:38:02;;;;;;;;;;;;;;;18.78;63.80;100132.16;4186335;28;20011;-69
2023/07/02 08:40:05;;;;;;;;;;;;;;;18.79;63.79;100136.56;4186498;28;20426;-68
2023/07/02 08:42:09;;;;;;;;;;;;;;;18.79;62.70;100151.06;4186580;28;20048;-68
2023/07/02 08:44:14;;;;;;;;;;;;;;;18.69;62.34;100146.25;4186072;28;20664;-68
2023/07/02 08:46:17;;;;;;;;;;;;;;;18.68;62.08;100139.13;4185978;28;20019;-70
2023/07/02 08:48:22;;;;;;;;;;;;;;;18.68;62.01;100133.66;4186869;28;20461;-68
2023/07/02 08:50:27;;;;;;;;;;;;;;;18.67;62.05;100132.00;4185601;28;20003;-69
2023/07/02 08:52:32;;;;;;;;;;;;;;;18.59;61.42;100117.88;4186544;28;20565;-69
2023/07/02 08:54:42;;;;;;;;;;;;;;;18.55;61.49;100117.53;4185902;28;20027;-67
2023/07/02 08:56:45;;;;;;;;;;;;;;;18.52;61.91;100118.84;4186835;28;20389;-68
2023/07/02 08:58:49;;;;;;;;;;;;;;;18.47;62.12;100131.63;4186738;28;20007;-68
2023/07/02 09:01:10;;;;;;;;;;;;;;;18.41;62.16;100125.19;4166200;28;20367;-69
2023/07/02 09:03:14;;;;;;;;;;;;;;;18.41;61.78;100132.59;4187087;28;20437;-71
2023/07/02 09:05:27;;;;;;;;;;;;;;;18.39;62.01;100142.94;4185064;28;20048;-69
2023/07/02 09:07:30;;;;;;;;;;;;;;;18.34;61.58;100143.66;4186282;28;20019;-68
2023/07/02 09:09:44;;;;;;;;;;;;;;;18.29;61.79;100135.34;4185832;28;19955;-70
2023/07/02 09:14:15;;;;;;;;;;;;;;;18.24;61.64;100136.06;4167007;28;20027;-70
2023/07/02 09:16:31;;;;;;;;;;;;;;;18.29;61.86;100138.09;4186501;28;20023;-69
2023/07/02 09:18:33;;;;;;;;;;;;;;;18.27;61.75;100149.25;4152886;28;20398;-68
2023/07/02 09:20:35;;;;;;;;;;;;;;;18.26;61.79;100142.16;4185570;28;20039;-67
2023/07/02 09:22:41;;;;;;;;;;;;;;;18.25;62.02;100142.41;4186532;28;20058;-68
2023/07/02 09:24:51;;;;;;;;;;;;;;;18.26;61.97;100152.22;4185752;28;20018;-67
2023/07/02 09:26:56;;;;;;;;;;;;;;;18.26;62.05;100150.34;4186316;28;20019;-68
2023/07/02 09:29:04;;;;;;;;;;;;;;;18.26;61.74;100141.31;4185933;28;20853;-67
2023/07/02 09:31:12;;;;;;;;;;;;;;;18.22;61.99;100157.38;4185750;28;19956;-68
2023/07/02 09:33:14;;;;;;;;;;;;;;;18.22;62.51;100165.56;4185121;28;20032;-69
2023/07/02 09:35:16;;;;;;;;;;;;;;;18.24;62.56;100147.00;4185599;28;20007;-67
2023/07/02 09:37:18;;;;;;;;;;;;;;;18.23;62.82;100152.72;4186330;28;20505;-68
2023/07/02 09:39:24;;;;;;;;;;;;;;;18.23;62.66;100156.31;4185233;28;20016;-68
2023/07/02 09:41:26;;;;;;;;;;;;;;;18.19;62.62;100163.31;4185384;28;20036;-68
2023/07/02 09:43:30;;;;;;;;;;;;;;;18.21;63.23;100158.41;4185394;28;20343;-69
2023/07/02 09:45:32;;;;;;;;;;;;;;;18.24;63.47;100154.38;4185744;28;20019;-68
2023/07/02 09:47:36;;;;;;;;;;;;;;;18.27;63.75;100181.25;4185771;28;20626;-69
2023/07/02 09:49:41;;;;;;;;;;;;;;;18.30;63.38;100161.63;4184756;28;19995;-70
2023/07/02 09:51:46;;;;;;;;;;;;;;;18.33;63.91;100172.06;4186316;28;19928;-69
2023/07/02 09:53:50;;;;;;;;;;;;;;;18.39;63.19;100162.91;4186135;28;20019;-70
2023/07/02 09:55:55;;;;;;;;;;;;;;;18.39;63.89;100157.44;4184494;28;20281;-69
2023/07/02 09:57:58;;;;;;;;;;;;;;;18.44;63.57;100159.44;4186459;28;19987;-68
2023/07/02 10:00:05;;;;;;;;;;;;;;;18.48;63.60;100155.13;4184643;28;20469;-68
2023/07/02 10:02:09;;;;;;;;;;;;;;;18.45;63.76;100152.88;4185960;28;20028;-68
2023/07/02 10:04:14;;;;;;;;;;;;;;;18.48;64.06;100150.50;4185019;28;20024;-69
2023/07/02 10:06:17;;;;;;;;;;;;;;;18.55;63.12;100151.19;4185675;28;20016;-69
2023/07/02 10:08:30;;;;;;;;;;;;;;;18.59;62.79;100151.53;4185788;28;20557;-69
2023/07/02 10:10:32;;;;;;;;;;;;;;;18.59;62.36;100151.53;4184385;28;20008;-69
2023/07/02 10:12:34;;;;;;;;;;;;;;;18.61;62.59;100154.03;4185283;28;20019;-70
2023/07/02 10:14:42;;;;;;;;;;;;;;;18.67;61.62;100145.66;4185348;28;20048;-69
2023/07/02 10:16:54;;;;;;;;;;;;;;;18.70;61.19;100155.28;4185527;28;20023;-69
2023/07/02 10:18:56;;;;;;;;;;;;;;;18.70;60.33;100147.91;4185333;28;20573;-68
2023/07/02 10:21:01;;;;;;;;;;;;;;;18.77;61.08;100145.00;4185683;28;20355;-69
2023/07/02 10:23:05;;;;;;;;;;;;;;;18.83;61.33;100151.41;4183802;28;20446;-69
2023/07/02 10:25:10;;;;;;;;;;;;;;;18.88;60.78;100146.06;4183892;28;19999;-69
2023/07/02 10:27:12;;;;;;;;;;;;;;;18.94;60.80;100157.94;4185992;28;20015;-68
2023/07/02 10:29:19;;;;;;;;;;;;;;;19.00;60.76;100157.78;4184987;28;20040;-68
2023/07/02 10:31:21;;;;;;;;;;;;;;;19.01;60.59;100143.03;4185086;28;20016;-68
2023/07/02 10:33:26;;;;;;;;;;;;;;;19.07;60.28;100155.72;4184812;28;20484;-69
2023/07/02 10:35:33;;;;;;;;;;;;;;;19.13;60.10;100151.13;4184898;28;20020;-69
2023/07/02 10:37:37;;;;;;;;;;;;;;;19.14;60.52;100133.66;4185487;28;20019;-69
2023/07/02 10:39:40;;;;;;;;;;;;;;;19.19;60.60;100138.38;4184558;28;20031;-69